Time;durP1;ratioP1;P1;durP2;ratioP2;P2;SDS_P1;SDS_P2;PMS_P1;PMS_P2;Temp;Humidity;BMP_temperature;BMP_pressure;BME280_temperature;BME280_humidity;BME280_pressure;Samples;Min_cycle;Max_cycle;Signal;HPM_P1;HPM_P2
2024/01/15 00:01:59;;;;;;;18.53;11.43;;;;;;;;;;5079307;28;20189;-79
2024/01/15 00:04:26;;;;;;;18.60;11.90;;;;;;;;;;5080156;28;20192;-79
2024/01/15 00:06:53;;;;;;;15.90;11.00;;;;;;;;;;5076972;28;20192;-78
2024/01/15 00:09:19;;;;;;;16.73;11.43;;;;;;;;;;5079037;28;20200;-79
2024/01/15 00:11:46;;;;;;;14.87;10.53;;;;;;;;;;5080538;28;20223;-78
2024/01/15 00:14:14;;;;;;;17.20;11.67;;;;;;;;;;5083878;28;20253;-78
2024/01/15 00:16:41;;;;;;;15.00;10.67;;;;;;;;;;5080283;28;20203;-78
2024/01/15 00:19:08;;;;;;;15.90;11.17;;;;;;;;;;5085706;28;20199;-78
2024/01/15 00:21:34;;;;;;;17.30;10.40;;;;;;;;;;5085278;28;20203;-78
2024/01/15 00:24:01;;;;;;;18.60;11.27;;;;;;;;;;5076217;28;20221;-77
2024/01/15 00:26:28;;;;;;;15.23;10.80;;;;;;;;;;5083594;28;20189;-79
2024/01/15 00:28:54;;;;;;;16.43;11.00;;;;;;;;;;5085282;28;20231;-79
2024/01/15 00:31:21;;;;;;;15.23;10.53;;;;;;;;;;5085952;28;20250;-78
2024/01/15 00:33:48;;;;;;;17.63;10.90;;;;;;;;;;5078644;28;20196;-79
2024/01/15 00:36:16;;;;;;;14.53;10.87;;;;;;;;;;5071940;28;20254;-79
2024/01/15 00:38:47;;;;;;;15.50;10.83;;;;;;;;;;5076007;28;20192;-77
2024/01/15 00:41:14;;;;;;;15.30;10.80;;;;;;;;;;5078675;28;20661;-79
2024/01/15 00:43:41;;;;;;;15.37;10.50;;;;;;;;;;5082928;28;20268;-80
2024/01/15 00:46:08;;;;;;;17.50;10.40;;;;;;;;;;5078712;28;20292;-77
2024/01/15 00:48:34;;;;;;;15.23;10.17;;;;;;;;;;5078578;28;20221;-78
2024/01/15 00:51:01;;;;;;;14.10;9.77;;;;;;;;;;5081625;28;20252;-78
2024/01/15 00:53:28;;;;;;;15.37;9.80;;;;;;;;;;5082248;28;20220;-79
2024/01/15 00:55:54;;;;;;;12.33;8.63;;;;;;;;;;5079222;28;20184;-79
2024/01/15 00:58:21;;;;;;;12.33;9.37;;;;;;;;;;5075309;28;20189;-80
2024/01/15 01:00:48;;;;;;;13.20;8.63;;;;;;;;;;5072555;28;20212;-78
2024/01/15 01:03:14;;;;;;;15.23;9.80;;;;;;;;;;5076242;28;20200;-77
2024/01/15 01:05:41;;;;;;;15.20;9.50;;;;;;;;;;5074781;28;20755;-78
2024/01/15 01:08:08;;;;;;;13.80;9.37;;;;;;;;;;5077662;28;20207;-79
2024/01/15 01:10:35;;;;;;;13.03;9.07;;;;;;;;;;5084875;28;20196;-79
2024/01/15 01:13:01;;;;;;;12.80;8.97;;;;;;;;;;5080821;28;20218;-77
2024/01/15 01:15:28;;;;;;;13.40;9.17;;;;;;;;;;5074748;28;20200;-82
2024/01/15 01:17:55;;;;;;;14.33;9.07;;;;;;;;;;5084142;28;20188;-79
2024/01/15 01:20:21;;;;;;;13.40;8.17;;;;;;;;;;5081650;28;20203;-81
2024/01/15 01:22:48;;;;;;;15.10;8.80;;;;;;;;;;5076472;28;20227;-78
2024/01/15 01:25:15;;;;;;;12.57;8.80;;;;;;;;;;5074320;28;20274;-77
2024/01/15 01:27:42;;;;;;;12.90;8.97;;;;;;;;;;5082779;28;20197;-79
2024/01/15 01:30:09;;;;;;;11.83;8.57;;;;;;;;;;5081691;28;20657;-78
2024/01/15 01:32:36;;;;;;;14.63;8.80;;;;;;;;;;5078550;28;20208;-78
2024/01/15 01:35:03;;;;;;;12.30;8.03;;;;;;;;;;5079530;28;20196;-77
2024/01/15 01:37:29;;;;;;;13.17;8.50;;;;;;;;;;5074673;28;20658;-79
2024/01/15 01:39:56;;;;;;;12.20;8.90;;;;;;;;;;5086076;28;20193;-79
2024/01/15 01:42:22;;;;;;;14.23;8.83;;;;;;;;;;5072158;28;20303;-80
2024/01/15 01:44:49;;;;;;;12.63;8.37;;;;;;;;;;5077455;28;20211;-79
2024/01/15 01:47:15;;;;;;;12.50;8.37;;;;;;;;;;5082384;28;20299;-79
2024/01/15 01:49:42;;;;;;;13.07;8.40;;;;;;;;;;5083864;28;20251;-79
2024/01/15 01:52:09;;;;;;;12.07;8.23;;;;;;;;;;5080284;28;20282;-80
2024/01/15 01:54:36;;;;;;;13.43;8.07;;;;;;;;;;5086254;28;20197;-78
2024/01/15 01:57:04;;;;;;;11.30;8.30;;;;;;;;;;5087824;28;20200;-81
2024/01/15 01:59:34;;;;;;;12.53;8.47;;;;;;;;;;5080824;28;20200;-79
2024/01/15 02:02:03;;;;;;;11.20;8.27;;;;;;;;;;5086458;28;20196;-79
2024/01/15 02:04:31;;;;;;;11.80;7.90;;;;;;;;;;5079466;28;20204;-80
2024/01/15 02:06:58;;;;;;;11.23;7.60;;;;;;;;;;5082700;28;20216;-80
2024/01/15 02:09:25;;;;;;;10.17;7.30;;;;;;;;;;5076634;28;20192;-81
2024/01/15 02:11:51;;;;;;;10.90;7.40;;;;;;;;;;5086574;28;20259;-80
2024/01/15 02:14:19;;;;;;;11.07;7.40;;;;;;;;;;5086334;28;20729;-80
2024/01/15 02:16:45;;;;;;;9.97;7.23;;;;;;;;;;5080209;28;20200;-78
2024/01/15 02:19:16;;;;;;;10.67;7.37;;;;;;;;;;5087740;28;20196;-79
2024/01/15 02:21:43;;;;;;;11.33;7.13;;;;;;;;;;5080353;28;20201;-79
2024/01/15 02:24:11;;;;;;;10.43;7.07;;;;;;;;;;5075116;28;20192;-79
2024/01/15 02:26:38;;;;;;;11.13;7.60;;;;;;;;;;5084025;28;20272;-79
2024/01/15 02:29:06;;;;;;;10.77;7.87;;;;;;;;;;5083404;28;20196;-77
2024/01/15 02:31:33;;;;;;;11.63;8.17;;;;;;;;;;5078684;28;20579;-79
2024/01/15 02:33:59;;;;;;;10.70;7.37;;;;;;;;;;5085090;28;20298;-80
2024/01/15 02:36:27;;;;;;;10.80;7.57;;;;;;;;;;5081074;28;20272;-79
2024/01/15 02:38:54;;;;;;;10.47;7.97;;;;;;;;;;5087104;28;20204;-79
2024/01/15 02:41:20;;;;;;;11.00;7.30;;;;;;;;;;5080878;28;20216;-80
2024/01/15 02:43:47;;;;;;;10.90;7.57;;;;;;;;;;5076387;28;20236;-78
2024/01/15 02:46:13;;;;;;;10.43;7.37;;;;;;;;;;5085879;28;20227;-79
2024/01/15 02:48:40;;;;;;;10.03;7.47;;;;;;;;;;5080261;28;20226;-79
2024/01/15 02:51:07;;;;;;;10.17;7.73;;;;;;;;;;5086673;28;20576;-79
2024/01/15 02:53:33;;;;;;;11.17;8.40;;;;;;;;;;5092468;28;20230;-79
2024/01/15 02:56:00;;;;;;;11.63;8.10;;;;;;;;;;5075895;28;20201;-81
2024/01/15 02:58:26;;;;;;;10.67;8.03;;;;;;;;;;5077758;28;20257;-78
2024/01/15 03:00:53;;;;;;;11.03;8.00;;;;;;;;;;5086530;28;20283;-80
2024/01/15 03:03:20;;;;;;;11.50;8.00;;;;;;;;;;5079208;28;20193;-80
2024/01/15 03:05:47;;;;;;;11.80;8.63;;;;;;;;;;5083804;28;20216;-78
2024/01/15 03:08:14;;;;;;;10.13;7.67;;;;;;;;;;5084058;28;20232;-81
2024/01/15 03:10:40;;;;;;;10.37;7.77;;;;;;;;;;5080730;28;20202;-80
2024/01/15 03:13:06;;;;;;;11.27;7.93;;;;;;;;;;5083022;28;20248;-78
2024/01/15 03:15:33;;;;;;;10.90;7.27;;;;;;;;;;5085042;28;20617;-81
2024/01/15 03:18:00;;;;;;;10.37;7.67;;;;;;;;;;5079500;28;20198;-80
2024/01/15 03:20:26;;;;;;;10.53;7.70;;;;;;;;;;5081063;28;20196;-78
2024/01/15 03:22:53;;;;;;;12.00;7.83;;;;;;;;;;5075549;28;20197;-78
2024/01/15 03:25:19;;;;;;;11.97;8.10;;;;;;;;;;5082929;28;20249;-80
2024/01/15 03:27:47;;;;;;;11.27;8.10;;;;;;;;;;5072522;28;20208;-79
2024/01/15 03:30:14;;;;;;;10.67;7.23;;;;;;;;;;5077239;28;20197;-80
2024/01/15 03:32:41;;;;;;;11.47;7.67;;;;;;;;;;5079811;28;20215;-80
2024/01/15 03:35:09;;;;;;;11.57;7.17;;;;;;;;;;5060816;28;20737;-80
2024/01/15 03:37:36;;;;;;;9.90;7.00;;;;;;;;;;5079321;28;20195;-80
2024/01/15 03:40:03;;;;;;;10.77;7.23;;;;;;;;;;5080176;28;20231;-80
2024/01/15 03:42:29;;;;;;;9.53;6.43;;;;;;;;;;5082269;28;20311;-79
2024/01/15 03:44:56;;;;;;;8.53;6.07;;;;;;;;;;5075633;28;20569;-80
2024/01/15 03:47:23;;;;;;;6.70;4.93;;;;;;;;;;5076488;28;20635;-80
2024/01/15 03:49:49;;;;;;;6.03;3.73;;;;;;;;;;5076363;28;20264;-79
2024/01/15 03:52:16;;;;;;;7.40;3.50;;;;;;;;;;5087232;28;20265;-80
2024/01/15 03:54:43;;;;;;;5.07;3.53;;;;;;;;;;5089124;28;20196;-78
2024/01/15 03:57:09;;;;;;;4.00;3.00;;;;;;;;;;5083681;28;20271;-79
2024/01/15 03:59:36;;;;;;;4.43;3.10;;;;;;;;;;5089110;28;20219;-77
2024/01/15 04:02:03;;;;;;;3.80;2.73;;;;;;;;;;5089221;28;20796;-83
2024/01/15 04:04:30;;;;;;;4.40;2.87;;;;;;;;;;5085796;28;20189;-79
2024/01/15 04:06:57;;;;;;;3.70;2.90;;;;;;;;;;5084397;28;20273;-81
2024/01/15 04:09:24;;;;;;;4.03;2.83;;;;;;;;;;5083263;28;20220;-80
2024/01/15 04:11:50;;;;;;;4.07;2.93;;;;;;;;;;5084946;28;20274;-79
2024/01/15 04:14:17;;;;;;;3.90;2.90;;;;;;;;;;5061433;28;20235;-79
2024/01/15 04:16:44;;;;;;;4.53;3.23;;;;;;;;;;5082291;28;20291;-81
2024/01/15 04:19:10;;;;;;;4.33;3.27;;;;;;;;;;5082449;28;20220;-80
2024/01/15 04:21:37;;;;;;;5.40;3.60;;;;;;;;;;5075399;28;20185;-79
2024/01/15 04:24:06;;;;;;;5.40;3.60;;;;;;;;;;5072337;28;20251;-80
2024/01/15 04:26:32;;;;;;;5.93;4.07;;;;;;;;;;5076787;28;20189;-80
2024/01/15 04:28:59;;;;;;;5.73;3.50;;;;;;;;;;5083237;28;20215;-79
2024/01/15 04:31:28;;;;;;;5.90;3.90;;;;;;;;;;5085214;28;20639;-81
2024/01/15 04:33:56;;;;;;;5.10;3.97;;;;;;;;;;5082372;28;20269;-80
2024/01/15 04:36:22;;;;;;;5.20;3.63;;;;;;;;;;5073289;28;20193;-79
2024/01/15 04:38:49;;;;;;;5.03;3.67;;;;;;;;;;5083435;28;20202;-80
2024/01/15 04:41:16;;;;;;;5.33;3.70;;;;;;;;;;5083523;28;20280;-80
2024/01/15 04:43:43;;;;;;;5.20;3.40;;;;;;;;;;5072911;28;20252;-81
2024/01/15 04:46:09;;;;;;;4.97;3.73;;;;;;;;;;5078369;28;20193;-80
2024/01/15 04:48:36;;;;;;;5.97;4.07;;;;;;;;;;5087162;28;20202;-84
2024/01/15 04:51:08;;;;;;;4.53;3.47;;;;;;;;;;5066662;28;20598;-81
2024/01/15 04:53:35;;;;;;;4.83;3.60;;;;;;;;;;5074169;28;20224;-83
2024/01/15 04:56:02;;;;;;;5.27;3.70;;;;;;;;;;5080302;28;20200;-83
2024/01/15 04:58:29;;;;;;;4.90;3.50;;;;;;;;;;5072593;28;20193;-81
2024/01/15 05:00:55;;;;;;;5.03;3.47;;;;;;;;;;5080528;28;20699;-82
2024/01/15 05:03:22;;;;;;;4.43;3.20;;;;;;;;;;5081939;28;20204;-85
2024/01/15 05:05:49;;;;;;;5.20;3.50;;;;;;;;;;5057527;28;20211;-80
2024/01/15 05:08:16;;;;;;;4.00;3.07;;;;;;;;;;5069475;28;20228;-79
2024/01/15 05:10:42;;;;;;;4.70;3.40;;;;;;;;;;5080094;28;20634;-84
2024/01/15 05:13:09;;;;;;;4.13;2.77;;;;;;;;;;5076806;28;20212;-82
2024/01/15 05:15:36;;;;;;;2.73;2.10;;;;;;;;;;5076449;28;20217;-79
2024/01/15 05:18:02;;;;;;;2.80;2.10;;;;;;;;;;5077059;28;20199;-79
2024/01/15 05:20:29;;;;;;;3.13;2.00;;;;;;;;;;5085182;28;20193;-81
2024/01/15 05:22:56;;;;;;;2.23;1.93;;;;;;;;;;5082123;28;20220;-79
2024/01/15 05:25:22;;;;;;;2.53;1.90;;;;;;;;;;5078758;28;20224;-81
2024/01/15 05:27:49;;;;;;;5.00;2.17;;;;;;;;;;5082526;28;20196;-80
2024/01/15 05:30:16;;;;;;;2.70;1.93;;;;;;;;;;5086456;28;20197;-81
2024/01/15 05:32:43;;;;;;;3.20;2.10;;;;;;;;;;5082491;28;20204;-82
2024/01/15 05:35:10;;;;;;;2.93;2.00;;;;;;;;;;5086641;28;20203;-81
2024/01/15 05:37:40;;;;;;;3.07;2.30;;;;;;;;;;5089088;28;20695;-84
2024/01/15 05:40:06;;;;;;;3.57;2.17;;;;;;;;;;5084524;28;20269;-79
2024/01/15 05:42:33;;;;;;;4.30;2.27;;;;;;;;;;5067398;28;20577;-80
2024/01/15 05:44:59;;;;;;;2.70;2.23;;;;;;;;;;5076540;28;20203;-79
2024/01/15 05:47:26;;;;;;;3.20;2.40;;;;;;;;;;5083254;28;20201;-81
2024/01/15 05:49:54;;;;;;;3.77;2.67;;;;;;;;;;5085823;28;20247;-79
2024/01/15 05:52:21;;;;;;;3.83;3.00;;;;;;;;;;5084456;28;20193;-80
2024/01/15 05:54:49;;;;;;;4.20;3.20;;;;;;;;;;5086997;28;20307;-79
2024/01/15 05:57:15;;;;;;;3.40;2.70;;;;;;;;;;5072703;28;20231;-79
2024/01/15 05:59:43;;;;;;;3.70;2.90;;;;;;;;;;5074426;28;20300;-80
2024/01/15 06:02:09;;;;;;;4.20;2.90;;;;;;;;;;5082869;28;20234;-79
2024/01/15 06:04:36;;;;;;;4.20;3.00;;;;;;;;;;5081388;28;20238;-81
2024/01/15 06:07:03;;;;;;;5.30;3.70;;;;;;;;;;5078532;28;20202;-78
2024/01/15 06:09:31;;;;;;;4.10;3.07;;;;;;;;;;5061999;28;20209;-79
2024/01/15 06:11:58;;;;;;;4.83;3.20;;;;;;;;;;5086979;28;20196;-83
2024/01/15 06:14:24;;;;;;;4.33;3.33;;;;;;;;;;5077516;28;20215;-79
2024/01/15 06:16:52;;;;;;;4.83;3.63;;;;;;;;;;5077795;28;20268;-80
2024/01/15 06:19:18;;;;;;;5.03;3.43;;;;;;;;;;5076463;28;20215;-78
2024/01/15 06:21:45;;;;;;;5.10;3.60;;;;;;;;;;5075205;28;20738;-79
2024/01/15 06:24:13;;;;;;;4.80;3.30;;;;;;;;;;5077193;28;20208;-79
2024/01/15 06:26:40;;;;;;;4.77;3.73;;;;;;;;;;5077546;28;20216;-78
2024/01/15 06:29:06;;;;;;;4.83;3.70;;;;;;;;;;5076790;28;20197;-78
2024/01/15 06:31:33;;;;;;;6.20;4.13;;;;;;;;;;5079192;28;20247;-81
2024/01/15 06:34:00;;;;;;;5.73;4.20;;;;;;;;;;5078762;28;20212;-79
2024/01/15 06:36:26;;;;;;;5.87;3.63;;;;;;;;;;5078680;28;20219;-81
2024/01/15 06:38:53;;;;;;;6.87;4.53;;;;;;;;;;5079639;28;20188;-80
2024/01/15 06:41:20;;;;;;;5.10;3.97;;;;;;;;;;5077898;28;20196;-80
2024/01/15 06:43:46;;;;;;;6.30;4.60;;;;;;;;;;5078877;28;20236;-81
2024/01/15 06:46:19;;;;;;;7.23;4.70;;;;;;;;;;5087630;28;20220;-84
2024/01/15 06:48:45;;;;;;;5.73;4.40;;;;;;;;;;5079575;28;20201;-82
2024/01/15 06:51:12;;;;;;;6.83;4.63;;;;;;;;;;5076401;28;20193;-78
2024/01/15 06:53:39;;;;;;;6.90;4.77;;;;;;;;;;5076184;28;20258;-82
2024/01/15 06:56:05;;;;;;;6.83;4.67;;;;;;;;;;5068375;28;20257;-81
2024/01/15 06:58:32;;;;;;;4.67;3.70;;;;;;;;;;5076989;28;20200;-81
2024/01/15 07:00:58;;;;;;;6.20;4.10;;;;;;;;;;5073729;28;20250;-79
2024/01/15 07:03:25;;;;;;;5.20;3.77;;;;;;;;;;5078826;28;20223;-79
2024/01/15 07:05:52;;;;;;;5.20;4.13;;;;;;;;;;5077518;28;20197;-80
2024/01/15 07:08:18;;;;;;;5.30;3.97;;;;;;;;;;5078830;28;20192;-80
2024/01/15 07:10:45;;;;;;;6.77;4.17;;;;;;;;;;5072507;28;20197;-79
2024/01/15 07:13:11;;;;;;;4.37;3.50;;;;;;;;;;5073386;28;20266;-79
2024/01/15 07:15:38;;;;;;;5.20;3.87;;;;;;;;;;5077533;28;20196;-80
2024/01/15 07:18:05;;;;;;;6.77;3.70;;;;;;;;;;5076187;28;20276;-80
2024/01/15 07:20:32;;;;;;;5.57;3.77;;;;;;;;;;5075891;28;20198;-79
2024/01/15 07:22:58;;;;;;;5.10;3.90;;;;;;;;;;5075026;28;20223;-81
2024/01/15 07:25:26;;;;;;;5.23;3.80;;;;;;;;;;5077181;28;20201;-83
2024/01/15 07:27:53;;;;;;;4.80;3.90;;;;;;;;;;5072636;28;20216;-80
2024/01/15 07:30:21;;;;;;;5.00;4.10;;;;;;;;;;5077037;28;20189;-80
2024/01/15 07:32:48;;;;;;;5.03;3.77;;;;;;;;;;5077734;28;20301;-80
2024/01/15 07:35:15;;;;;;;5.43;3.50;;;;;;;;;;5075460;28;20339;-79
2024/01/15 07:37:42;;;;;;;4.60;3.60;;;;;;;;;;5080288;28;20200;-86
2024/01/15 07:40:09;;;;;;;4.97;3.30;;;;;;;;;;5085623;28;20188;-80
2024/01/15 07:42:35;;;;;;;5.90;3.50;;;;;;;;;;5090150;28;20281;-78
2024/01/15 07:45:02;;;;;;;4.37;3.33;;;;;;;;;;5077465;28;20208;-80
2024/01/15 07:47:32;;;;;;;4.53;3.43;;;;;;;;;;5086136;28;20185;-80
2024/01/15 07:49:58;;;;;;;3.90;3.10;;;;;;;;;;5080293;28;20309;-81
2024/01/15 07:52:31;;;;;;;3.97;3.10;;;;;;;;;;5062687;28;20208;-81
2024/01/15 07:55:03;;;;;;;4.50;3.27;;;;;;;;;;5079267;28;20223;-80
2024/01/15 07:57:30;;;;;;;4.20;2.77;;;;;;;;;;5084859;28;20273;-81
2024/01/15 07:59:57;;;;;;;3.30;2.77;;;;;;;;;;5079551;28;20196;-81
2024/01/15 08:02:24;;;;;;;4.50;2.60;;;;;;;;;;5079437;28;20193;-82
2024/01/15 08:04:50;;;;;;;3.30;2.40;;;;;;;;;;5085961;28;20223;-81
2024/01/15 08:07:17;;;;;;;4.07;2.37;;;;;;;;;;5080671;28;20200;-78
2024/01/15 08:09:46;;;;;;;3.17;2.00;;;;;;;;;;5077672;28;20205;-81
2024/01/15 08:12:13;;;;;;;2.97;2.10;;;;;;;;;;5083341;28;20299;-80
2024/01/15 08:14:40;;;;;;;3.43;2.07;;;;;;;;;;5085770;28;20216;-80
2024/01/15 08:17:06;;;;;;;2.57;1.90;;;;;;;;;;5073279;28;20193;-78
2024/01/15 08:19:33;;;;;;;4.37;2.10;;;;;;;;;;5077766;28;20224;-80
2024/01/15 08:21:59;;;;;;;2.50;2.00;;;;;;;;;;5071107;28;20254;-82
2024/01/15 08:24:26;;;;;;;2.80;1.80;;;;;;;;;;5078070;28;20197;-82
2024/01/15 08:26:53;;;;;;;2.70;1.67;;;;;;;;;;5073372;28;20657;-83
2024/01/15 08:29:20;;;;;;;2.50;1.70;;;;;;;;;;5072818;28;20254;-82
2024/01/15 08:31:47;;;;;;;2.00;1.70;;;;;;;;;;5080751;28;20375;-81
2024/01/15 08:34:14;;;;;;;2.43;1.90;;;;;;;;;;5082508;28;20222;-83
2024/01/15 08:36:41;;;;;;;2.43;2.00;;;;;;;;;;5074780;28;20204;-81
2024/01/15 08:39:08;;;;;;;2.10;1.57;;;;;;;;;;5073819;28;20200;-82
2024/01/15 08:41:36;;;;;;;3.47;1.70;;;;;;;;;;5071103;28;20685;-84
2024/01/15 08:44:03;;;;;;;1.87;1.70;;;;;;;;;;5077738;28;20215;-82
2024/01/15 08:46:30;;;;;;;3.80;1.83;;;;;;;;;;5078152;28;20296;-84
2024/01/15 08:48:57;;;;;;;2.27;1.70;;;;;;;;;;5080376;28;20204;-82
2024/01/15 08:51:24;;;;;;;2.10;1.90;;;;;;;;;;5080780;28;20208;-83
2024/01/15 08:53:50;;;;;;;2.03;1.60;;;;;;;;;;5076019;28;20196;-84
2024/01/15 08:56:17;;;;;;;1.77;1.60;;;;;;;;;;5076433;28;20208;-84
2024/01/15 08:58:45;;;;;;;1.93;1.50;;;;;;;;;;5075264;28;20225;-86
2024/01/15 09:01:12;;;;;;;2.50;1.33;;;;;;;;;;5075896;28;20281;-84
2024/01/15 09:03:39;;;;;;;3.13;1.57;;;;;;;;;;5073553;28;20224;-85
2024/01/15 09:06:07;;;;;;;1.93;1.33;;;;;;;;;;5079727;28;20197;-86
2024/01/15 09:08:33;;;;;;;2.03;1.60;;;;;;;;;;5083416;28;20727;-84
2024/01/15 09:11:02;;;;;;;1.80;1.40;;;;;;;;;;5083915;28;20193;-86
2024/01/15 09:13:29;;;;;;;1.83;1.40;;;;;;;;;;5085671;28;20258;-87
2024/01/15 09:15:55;;;;;;;1.40;1.27;;;;;;;;;;5079767;28;20700;-85
2024/01/15 09:18:22;;;;;;;2.03;1.30;;;;;;;;;;5061504;28;20209;-85
2024/01/15 09:20:49;;;;;;;1.40;1.30;;;;;;;;;;5081617;28;20299;-86
2024/01/15 09:23:15;;;;;;;1.40;1.30;;;;;;;;;;5083985;28;20246;-84
2024/01/15 09:25:42;;;;;;;1.73;1.47;;;;;;;;;;5061678;28;20200;-83
2024/01/15 09:28:08;;;;;;;1.50;1.33;;;;;;;;;;5069715;28;20656;-86
2024/01/15 09:30:36;;;;;;;1.73;1.40;;;;;;;;;;5084701;28;20250;-83
2024/01/15 09:33:03;;;;;;;1.97;1.43;;;;;;;;;;5077220;28;20220;-85
2024/01/15 09:35:29;;;;;;;1.90;1.50;;;;;;;;;;5075444;28;20248;-86
2024/01/15 09:37:56;;;;;;;2.13;1.87;;;;;;;;;;5080109;28;20237;-84
2024/01/15 09:40:23;;;;;;;2.13;1.70;;;;;;;;;;5063706;28;20216;-84
2024/01/15 09:42:50;;;;;;;3.47;1.63;;;;;;;;;;5062837;28;20282;-83
2024/01/15 09:45:17;;;;;;;1.67;1.37;;;;;;;;;;5077229;28;20188;-83
2024/01/15 09:47:43;;;;;;;1.90;1.57;;;;;;;;;;5083164;28;20197;-85
2024/01/15 09:50:12;;;;;;;1.60;1.43;;;;;;;;;;5076618;28;20231;-86
2024/01/15 09:52:40;;;;;;;1.97;1.43;;;;;;;;;;5076470;28;20196;-82
2024/01/15 09:55:07;;;;;;;2.07;1.53;;;;;;;;;;5059237;28;20317;-85
2024/01/15 09:57:34;;;;;;;1.53;1.43;;;;;;;;;;5077990;28;20197;-85
2024/01/15 10:00:04;;;;;;;1.57;1.30;;;;;;;;;;5061219;28;20308;-84
2024/01/15 10:02:31;;;;;;;2.37;1.70;;;;;;;;;;5078122;28;20228;-83
2024/01/15 10:04:58;;;;;;;3.37;1.60;;;;;;;;;;5075894;28;20228;-85
2024/01/15 10:07:25;;;;;;;2.00;1.20;;;;;;;;;;5079294;28;20192;-85
2024/01/15 10:09:52;;;;;;;2.30;1.50;;;;;;;;;;5075676;28;20221;-82
2024/01/15 10:12:20;;;;;;;2.30;1.60;;;;;;;;;;5083543;28;20223;-82
2024/01/15 10:14:49;;;;;;;1.63;1.50;;;;;;;;;;5075843;28;20204;-85
2024/01/15 10:17:17;;;;;;;2.47;1.60;;;;;;;;;;5070301;28;20604;-83
2024/01/15 10:19:47;;;;;;;1.40;1.20;;;;;;;;;;5078115;28;20203;-85
2024/01/15 10:22:17;;;;;;;2.20;1.50;;;;;;;;;;5071190;28;20204;-85
2024/01/15 10:24:46;;;;;;;1.47;1.30;;;;;;;;;;5076712;28;20202;-86
2024/01/15 10:27:14;;;;;;;2.13;1.30;;;;;;;;;;5064223;28;20232;-85
2024/01/15 10:29:41;;;;;;;1.67;1.50;;;;;;;;;;5077364;28;20201;-86
2024/01/15 10:32:09;;;;;;;3.13;1.60;;;;;;;;;;5071512;28;20257;-85
2024/01/15 10:34:39;;;;;;;2.53;1.40;;;;;;;;;;5077998;28;20205;-85
2024/01/15 10:37:08;;;;;;;2.47;1.60;;;;;;;;;;5065537;28;20200;-85
2024/01/15 10:39:35;;;;;;;1.63;1.43;;;;;;;;;;5081684;28;20192;-86
2024/01/15 10:42:03;;;;;;;2.10;1.47;;;;;;;;;;5063317;28;20231;-83
2024/01/15 10:44:29;;;;;;;2.37;1.67;;;;;;;;;;5060904;28;20727;-83
2024/01/15 10:46:56;;;;;;;2.40;1.70;;;;;;;;;;5069130;28;20193;-84
2024/01/15 10:49:26;;;;;;;2.20;1.57;;;;;;;;;;5078227;28;20701;-88
2024/01/15 10:51:58;;;;;;;1.77;1.60;;;;;;;;;;5062619;28;20210;-84
2024/01/15 10:54:26;;;;;;;1.47;1.30;;;;;;;;;;5076247;28;20205;-85
2024/01/15 10:56:54;;;;;;;1.90;1.50;;;;;;;;;;5074137;28;20236;-84
2024/01/15 10:59:21;;;;;;;1.50;1.40;;;;;;;;;;5067552;28;20196;-84
2024/01/15 11:01:49;;;;;;;2.07;1.40;;;;;;;;;;5074253;28;20197;-83
2024/01/15 11:04:16;;;;;;;2.10;1.60;;;;;;;;;;5079429;28;20190;-84
2024/01/15 11:06:44;;;;;;;1.80;1.50;;;;;;;;;;5073379;28;20236;-82
2024/01/15 11:09:15;;;;;;;2.07;1.40;;;;;;;;;;5052491;28;20242;-86
2024/01/15 11:11:43;;;;;;;2.20;1.60;;;;;;;;;;5084789;28;20200;-85
2024/01/15 11:14:31;;;;;;;1.60;1.50;;;;;;;;;;5073718;28;20208;-84
2024/01/15 11:17:00;;;;;;;2.77;1.50;;;;;;;;;;5072372;28;20277;-82
2024/01/15 11:19:36;;;;;;;1.87;1.67;;;;;;;;;;5070827;28;20205;-83
2024/01/15 11:22:03;;;;;;;2.63;1.67;;;;;;;;;;5078555;28;20200;-84
2024/01/15 11:24:34;;;;;;;2.07;1.60;;;;;;;;;;5084989;28;20196;-83
2024/01/15 11:27:00;;;;;;;2.40;1.87;;;;;;;;;;5073994;28;20286;-85
2024/01/15 11:29:27;;;;;;;2.77;1.80;;;;;;;;;;5074451;28;20189;-83
2024/01/15 11:32:09;;;;;;;2.57;1.60;;;;;;;;;;5076153;28;20288;-83
2024/01/15 11:34:58;;;;;;;2.13;1.70;;;;;;;;;;5072551;28;20217;-84
2024/01/15 11:37:27;;;;;;;2.07;1.50;;;;;;;;;;5078319;28;20711;-84
2024/01/15 11:39:54;;;;;;;2.00;1.73;;;;;;;;;;5056996;28;20208;-86
2024/01/15 11:42:21;;;;;;;1.80;1.50;;;;;;;;;;5075965;28;20201;-85
2024/01/15 11:44:49;;;;;;;3.63;1.53;;;;;;;;;;5078798;28;20253;-81
2024/01/15 11:47:17;;;;;;;2.33;1.67;;;;;;;;;;5077708;28;20231;-83
2024/01/15 11:49:56;;;;;;;2.60;1.70;;;;;;;;;;5075559;28;20263;-85
2024/01/15 11:52:23;;;;;;;2.40;1.60;;;;;;;;;;5091757;28;20658;-88
2024/01/15 11:55:10;;;;;;;2.97;1.50;;;;;;;;;;5079359;28;20224;-83
2024/01/15 11:57:43;;;;;;;1.87;1.60;;;;;;;;;;5075450;28;20235;-88
2024/01/15 12:00:11;;;;;;;2.27;1.67;;;;;;;;;;5073888;28;20193;-84
2024/01/15 12:02:41;;;;;;;2.30;1.20;;;;;;;;;;5076218;28;20259;-85
2024/01/15 12:05:08;;;;;;;2.40;1.10;;;;;;;;;;5070604;28;20196;-83
2024/01/15 12:07:35;;;;;;;1.50;0.90;;;;;;;;;;5070235;28;20254;-85
2024/01/15 12:10:02;;;;;;;1.10;0.90;;;;;;;;;;5072703;28;20208;-83
2024/01/15 12:12:37;;;;;;;1.43;0.90;;;;;;;;;;5076833;28;20258;-83
2024/01/15 12:15:05;;;;;;;1.43;1.07;;;;;;;;;;5075684;28;20224;-84
2024/01/15 12:17:31;;;;;;;0.87;0.80;;;;;;;;;;5060688;28;20558;-85
2024/01/15 12:19:59;;;;;;;1.50;1.00;;;;;;;;;;5075397;28;20188;-87
2024/01/15 12:22:27;;;;;;;0.87;0.80;;;;;;;;;;5078480;28;20200;-84
2024/01/15 12:24:54;;;;;;;1.43;1.00;;;;;;;;;;5054903;28;20200;-85
2024/01/15 12:27:21;;;;;;;1.23;1.10;;;;;;;;;;5055218;28;20201;-81
2024/01/15 12:29:47;;;;;;;2.53;0.93;;;;;;;;;;5071572;28;20196;-83
2024/01/15 12:32:14;;;;;;;1.40;0.90;;;;;;;;;;5063875;28;20247;-84
2024/01/15 12:34:41;;;;;;;1.37;1.10;;;;;;;;;;5077102;28;20232;-85
2024/01/15 12:37:07;;;;;;;1.57;0.97;;;;;;;;;;5074172;28;20196;-83
2024/01/15 12:39:35;;;;;;;2.13;0.97;;;;;;;;;;5072660;28;20204;-85
2024/01/15 12:42:03;;;;;;;1.23;1.00;;;;;;;;;;5073578;28;20292;-83
2024/01/15 12:44:30;;;;;;;1.30;1.00;;;;;;;;;;5072104;28;20221;-88
2024/01/15 12:46:56;;;;;;;2.33;1.20;;;;;;;;;;5075546;28;20661;-83
2024/01/15 12:49:23;;;;;;;1.43;1.00;;;;;;;;;;5055559;28;20285;-84
2024/01/15 12:51:52;;;;;;;2.47;1.30;;;;;;;;;;5074179;28;20201;-82
2024/01/15 12:54:19;;;;;;;1.20;1.10;;;;;;;;;;5053379;28;20595;-83
2024/01/15 12:56:45;;;;;;;1.93;1.30;;;;;;;;;;5067315;28;20229;-84
2024/01/15 12:59:12;;;;;;;1.00;0.80;;;;;;;;;;5077236;28;20244;-84
2024/01/15 13:01:39;;;;;;;1.53;1.10;;;;;;;;;;5071470;28;20193;-83
2024/01/15 13:04:08;;;;;;;1.20;1.07;;;;;;;;;;5073616;28;20274;-87
2024/01/15 13:06:35;;;;;;;1.00;0.90;;;;;;;;;;5076139;28;20279;-84
2024/01/15 13:09:02;;;;;;;2.23;1.00;;;;;;;;;;5078725;28;20201;-85
2024/01/15 13:11:29;;;;;;;1.20;0.80;;;;;;;;;;5074810;28;20197;-85
2024/01/15 13:13:57;;;;;;;1.20;1.00;;;;;;;;;;5071515;28;20197;-84
2024/01/15 13:16:26;;;;;;;1.60;1.10;;;;;;;;;;5071898;28;20231;-86
2024/01/15 13:18:54;;;;;;;1.23;1.00;;;;;;;;;;5073570;28;20213;-83
2024/01/15 13:21:21;;;;;;;0.80;0.80;;;;;;;;;;5074092;28;20752;-85
2024/01/15 13:23:48;;;;;;;1.97;1.10;;;;;;;;;;5074189;28;20672;-85
2024/01/15 13:26:15;;;;;;;1.23;1.00;;;;;;;;;;5060690;28;20219;-83
2024/01/15 13:28:42;;;;;;;1.37;1.00;;;;;;;;;;5082368;28;20254;-86
2024/01/15 13:31:09;;;;;;;1.10;1.00;;;;;;;;;;5081987;28;20251;-86
2024/01/15 13:33:35;;;;;;;1.93;1.40;;;;;;;;;;5077658;28;20227;-84
2024/01/15 13:36:08;;;;;;;1.77;1.00;;;;;;;;;;5062307;28;20331;-83
2024/01/15 13:38:36;;;;;;;1.50;1.30;;;;;;;;;;5081781;28;20713;-83
2024/01/15 13:41:06;;;;;;;1.93;1.20;;;;;;;;;;5082482;28;20295;-84
2024/01/15 13:43:32;;;;;;;3.10;1.00;;;;;;;;;;5079794;28;20219;-85
2024/01/15 13:45:59;;;;;;;1.20;1.10;;;;;;;;;;5077454;28;20193;-83
2024/01/15 13:48:26;;;;;;;1.40;1.10;;;;;;;;;;5077387;28;20665;-86
2024/01/15 13:50:54;;;;;;;1.30;1.20;;;;;;;;;;5072381;28;20237;-86
2024/01/15 13:53:21;;;;;;;1.37;1.20;;;;;;;;;;5065186;28;20235;-82
2024/01/15 13:55:47;;;;;;;1.97;1.00;;;;;;;;;;5078759;28;20299;-84
2024/01/15 13:58:14;;;;;;;1.97;1.50;;;;;;;;;;5079767;28;20221;-88
2024/01/15 14:00:41;;;;;;;1.50;1.17;;;;;;;;;;5091242;28;20274;-82
2024/01/15 14:03:09;;;;;;;1.37;1.10;;;;;;;;;;5083387;28;20229;-84
2024/01/15 14:05:36;;;;;;;2.03;1.63;;;;;;;;;;5083419;28;20203;-85
2024/01/15 14:08:03;;;;;;;1.80;1.30;;;;;;;;;;5083274;28;20215;-85
2024/01/15 14:10:30;;;;;;;2.97;1.30;;;;;;;;;;5063228;28;20202;-84
2024/01/15 14:12:56;;;;;;;2.07;1.40;;;;;;;;;;5086673;28;20238;-84
2024/01/15 14:15:23;;;;;;;3.30;1.57;;;;;;;;;;5061239;28;20217;-84
2024/01/15 14:17:50;;;;;;;1.40;1.30;;;;;;;;;;5079944;28;20228;-84
2024/01/15 14:20:17;;;;;;;1.40;1.20;;;;;;;;;;5078236;28;20232;-81
2024/01/15 14:22:48;;;;;;;3.13;1.50;;;;;;;;;;5078200;28;20207;-84
2024/01/15 14:25:14;;;;;;;1.57;1.30;;;;;;;;;;5078196;28;20274;-83
2024/01/15 14:27:41;;;;;;;1.43;1.33;;;;;;;;;;5078864;28;20288;-84
2024/01/15 14:30:08;;;;;;;1.57;1.20;;;;;;;;;;5081512;28;20668;-82
2024/01/15 14:32:35;;;;;;;2.40;1.50;;;;;;;;;;5081279;28;20205;-84
2024/01/15 14:35:03;;;;;;;2.40;1.30;;;;;;;;;;5074094;28;20201;-84
2024/01/15 14:37:30;;;;;;;2.23;1.67;;;;;;;;;;5078549;28;20239;-82
2024/01/15 14:39:57;;;;;;;2.83;1.40;;;;;;;;;;5076457;28;20242;-81